Duruca — TCA3377 — position and weather

sailwx.info

Track history (hours):
 
Tides and Currents Weather Stations Pressure Air Temp Water Temp Dewpoint Dewpoint Depression Visibility Wind Speed Wind Dir Waves Ship Positions

Duruca

Last reported at 2017-Nov-23 23:22 UTC. Time now 2017-Nov-24 07:34 UTC.
Position N 36°06' E 030°32'.

Length 117 m; draft 6.6 m.

Type: Ship (hazmat cat A). MMSI: 271044033.

Date/timePositionNaut miles runAvg speedWind from/ knotsBaromVisibWave heightAir tempDewpointWater temp
2017-Nov-23 23:22N 36°06' E 030°32'512.4
2017-Nov-23 22:59N 36°07' E 030°26'13112.6
2017-Nov-23 12:38N 35°51' E 027°46'2 8.2
2017-Nov-23 12:23N 35°51' E 027°43'5412.8
2017-Nov-23 08:12N 35°58' E 026°37'212.5
2017-Nov-23 08:00N 35°58' E 026°34'612.6
2017-Nov-23 07:30N 35°59' E 026°27'1412.6
2017-Nov-23 06:21N 35°59' E 026°09'512.9
2017-Nov-23 06:00N 35°59' E 026°03'712.8
2017-Nov-23 05:30N 35°59' E 025°55'612.3
2017-Nov-23 05:00N 35°59' E 025°48'612.2
2017-Nov-23 04:30N 35°59' E 025°40'6012.6
2017-Nov-22 23:45N 36°03' E 024°26'312.9
2017-Nov-22 23:30N 36°02' E 024°22'613.0
2017-Nov-22 23:00N 36°03' E 024°14'713.1
2017-Nov-22 22:30N 36°03' E 024°06'612.9
2017-Nov-22 22:00N 36°03' E 023°58'813.0
2017-Nov-22 21:25N 36°02' E 023°49'  
2017-Nov-18 07:14N 35°56' W 005°15'210.7
2017-Nov-18 07:01N 35°55' W 005°18'1 2.3
2017-Nov-18 06:29N 35°54' W 005°18'0 0.0
2017-Nov-18 05:59N 35°54' W 005°18'0 0.0
2017-Nov-18 05:29N 35°54' W 005°18'0 0.0
2017-Nov-18 04:59N 35°54' W 005°18'0 0.0
2017-Nov-18 04:29N 35°54' W 005°18'0 0.0
2017-Nov-18 03:59N 35°54' W 005°18'0 0.0
2017-Nov-18 03:29N 35°54' W 005°18'0 0.0
2017-Nov-18 02:59N 35°54' W 005°18'0 0.0
2017-Nov-18 02:29N 35°54' W 005°18'0 0.5
2017-Nov-18 02:00N 35°54' W 005°19'1 1.9
2017-Nov-18 01:30N 35°55' W 005°19'0 0.8
2017-Nov-18 01:00N 35°55' W 005°19'510.3
2017-Nov-18 00:30N 35°57' W 005°25'  
Track history (hours):
 
Tides and Currents Weather Stations Pressure Air Temp Water Temp Dewpoint Dewpoint Depression Visibility Wind Speed Wind Dir Waves Ship Positions

Duruca

Last reported at 2017-Nov-23 23:22 UTC. Time now 2017-Nov-24 07:34 UTC.
Position N 36°06' E 030°32'.

Length 117 m; draft 6.6 m.

Type: Ship (hazmat cat A). MMSI: 271044033.

Date/timePositionNaut miles runAvg speedWind from/ knotsBaromVisibWave heightAir tempDewpointWater temp
2017-Nov-23 23:22N 36°06' E 030°32'512.4
2017-Nov-23 22:59N 36°07' E 030°26'13112.6
2017-Nov-23 12:38N 35°51' E 027°46'2 8.2
2017-Nov-23 12:23N 35°51' E 027°43'5412.8
2017-Nov-23 08:12N 35°58' E 026°37'212.5
2017-Nov-23 08:00N 35°58' E 026°34'612.6
2017-Nov-23 07:30N 35°59' E 026°27'1412.6
2017-Nov-23 06:21N 35°59' E 026°09'512.9
2017-Nov-23 06:00N 35°59' E 026°03'712.8
2017-Nov-23 05:30N 35°59' E 025°55'612.3
2017-Nov-23 05:00N 35°59' E 025°48'612.2
2017-Nov-23 04:30N 35°59' E 025°40'6012.6
2017-Nov-22 23:45N 36°03' E 024°26'312.9
2017-Nov-22 23:30N 36°02' E 024°22'613.0
2017-Nov-22 23:00N 36°03' E 024°14'713.1
2017-Nov-22 22:30N 36°03' E 024°06'612.9
2017-Nov-22 22:00N 36°03' E 023°58'813.0
2017-Nov-22 21:25N 36°02' E 023°49'  
2017-Nov-18 07:14N 35°56' W 005°15'210.7
2017-Nov-18 07:01N 35°55' W 005°18'1 2.3
2017-Nov-18 06:29N 35°54' W 005°18'0 0.0
2017-Nov-18 05:59N 35°54' W 005°18'0 0.0
2017-Nov-18 05:29N 35°54' W 005°18'0 0.0
2017-Nov-18 04:59N 35°54' W 005°18'0 0.0
2017-Nov-18 04:29N 35°54' W 005°18'0 0.0
2017-Nov-18 03:59N 35°54' W 005°18'0 0.0
2017-Nov-18 03:29N 35°54' W 005°18'0 0.0
2017-Nov-18 02:59N 35°54' W 005°18'0 0.0
2017-Nov-18 02:29N 35°54' W 005°18'0 0.5
2017-Nov-18 02:00N 35°54' W 005°19'1 1.9
2017-Nov-18 01:30N 35°55' W 005°19'0 0.8
2017-Nov-18 01:00N 35°55' W 005°19'510.3
2017-Nov-18 00:30N 35°57' W 005°25'  

Dump ship's entire track history